createdAt,value
2018-07-06T00:00:14.103Z,7.50
2018-07-06T00:02:53.772Z,6.77
2018-07-06T00:05:33.667Z,7.63
2018-07-06T00:08:07.373Z,7.73
2018-07-06T00:10:47.108Z,7.67
2018-07-06T00:13:20.779Z,7.20
2018-07-06T00:16:00.420Z,8.00
2018-07-06T00:18:40.238Z,7.77
2018-07-06T00:21:20.867Z,7.43
2018-07-06T00:24:00.665Z,8.10
2018-07-06T00:26:40.756Z,7.30
2018-07-06T00:29:20.608Z,8.07
2018-07-06T00:32:00.514Z,7.30
2018-07-06T00:34:40.108Z,7.77
2018-07-06T00:37:19.789Z,7.20
2018-07-06T00:39:59.332Z,8.03
2018-07-06T00:42:38.952Z,8.37
2018-07-06T00:45:18.547Z,7.80
2018-07-06T00:47:52.096Z,8.13
2018-07-06T00:50:31.832Z,7.77
2018-07-06T00:53:11.578Z,7.80
2018-07-06T00:55:51.468Z,9.17
2018-07-06T00:58:31.252Z,9.67
2018-07-06T01:01:10.893Z,9.00
2018-07-06T01:03:50.435Z,8.33
2018-07-06T01:06:30.261Z,8.60
2018-07-06T01:09:10.092Z,8.23
2018-07-06T01:11:49.907Z,9.77
2018-07-06T01:14:29.632Z,9.83
2018-07-06T01:17:14.907Z,9.93
2018-07-06T01:19:54.634Z,10.27
2018-07-06T01:22:34.580Z,10.13
2018-07-06T01:25:14.103Z,9.23
2018-07-06T01:27:53.761Z,10.33
2018-07-06T01:30:33.427Z,10.57
2018-07-06T01:33:13.138Z,11.07
2018-07-06T01:35:52.722Z,11.07
2018-07-06T01:38:32.718Z,9.73
2018-07-06T01:41:12.329Z,10.37
2018-07-06T01:43:52.115Z,10.03
2018-07-06T01:46:31.968Z,10.10
2018-07-06T01:49:11.695Z,9.10
2018-07-06T01:51:51.504Z,11.90
2018-07-06T01:54:31.311Z,12.97
2018-07-06T01:57:10.938Z,12.50
2018-07-06T01:59:50.704Z,13.17
2018-07-06T02:02:30.452Z,12.60
2018-07-06T02:05:10.253Z,12.77
2018-07-06T02:07:49.863Z,14.43
2018-07-06T02:10:29.664Z,14.60
2018-07-06T02:13:09.438Z,15.07
2018-07-06T02:15:49.283Z,15.10
2018-07-06T02:18:28.957Z,15.60
2018-07-06T02:21:08.587Z,15.07
2018-07-06T02:23:48.469Z,16.20
2018-07-06T02:26:28.091Z,15.10
2018-07-06T02:29:07.786Z,14.33
2018-07-06T02:31:47.756Z,16.60
2018-07-06T02:34:34.741Z,15.10
2018-07-06T02:37:14.378Z,15.00
2018-07-06T02:39:53.994Z,13.13
2018-07-06T02:42:33.705Z,13.73
2018-07-06T02:45:13.405Z,14.27
2018-07-06T02:47:53.044Z,13.90
2018-07-06T02:50:32.690Z,14.23
2018-07-06T02:53:12.389Z,13.47
2018-07-06T02:55:52.183Z,14.70
2018-07-06T02:58:31.956Z,14.50
2018-07-06T03:01:11.605Z,14.30
2018-07-06T03:03:51.380Z,13.80
2018-07-06T03:06:31.159Z,13.50
2018-07-06T03:09:10.853Z,13.47
2018-07-06T03:11:50.776Z,14.07
2018-07-06T03:14:30.320Z,15.73
2018-07-06T03:17:09.944Z,16.53
2018-07-06T03:19:49.511Z,15.27
2018-07-06T03:22:29.322Z,14.40
2018-07-06T03:25:09.126Z,16.37
2018-07-06T03:27:48.943Z,14.63
2018-07-06T03:30:28.781Z,13.17
2018-07-06T03:33:08.642Z,15.47
2018-07-06T03:35:48.392Z,13.30
2018-07-06T03:38:28.042Z,12.20
2018-07-06T03:41:07.905Z,14.00
2018-07-06T03:43:47.783Z,13.00
2018-07-06T03:46:27.407Z,12.33
2018-07-06T03:49:07.104Z,12.10
2018-07-06T03:51:46.894Z,12.40
2018-07-06T03:54:26.817Z,12.07
2018-07-06T03:57:06.303Z,12.07
2018-07-06T03:59:45.998Z,11.83
2018-07-06T04:02:25.747Z,12.23
2018-07-06T04:05:05.518Z,11.63
2018-07-06T04:07:45.216Z,10.90
2018-07-06T04:10:24.903Z,11.93
2018-07-06T04:13:04.710Z,11.90
2018-07-06T04:15:44.475Z,13.30
2018-07-06T04:18:24.106Z,13.00
2018-07-06T04:21:03.957Z,11.90
2018-07-06T04:23:43.573Z,12.30
2018-07-06T04:26:23.266Z,11.83
2018-07-06T04:29:02.873Z,11.70
2018-07-06T04:31:42.533Z,11.57
2018-07-06T04:34:22.571Z,12.23
2018-07-06T04:37:02.275Z,11.67
2018-07-06T04:39:41.850Z,11.60
2018-07-06T04:42:21.401Z,11.20
2018-07-06T04:45:01.025Z,11.80
2018-07-06T04:47:40.870Z,10.43
2018-07-06T04:50:20.630Z,12.10
2018-07-06T04:53:00.424Z,11.53
2018-07-06T04:55:40.157Z,11.10
2018-07-06T04:58:19.788Z,9.27
2018-07-06T05:00:59.457Z,10.07
2018-07-06T05:03:39.379Z,9.73
2018-07-06T05:06:19.062Z,9.10
2018-07-06T05:08:58.809Z,9.90
2018-07-06T05:11:38.639Z,11.27
2018-07-06T05:14:18.435Z,11.47
2018-07-06T05:16:58.198Z,10.67
2018-07-06T05:19:38.120Z,12.10
2018-07-06T05:22:17.762Z,11.80
2018-07-06T05:24:57.390Z,11.60
2018-07-06T05:27:37.071Z,11.13
2018-07-06T05:30:16.839Z,11.07
2018-07-06T05:32:56.682Z,12.67
2018-07-06T05:35:36.523Z,9.97
2018-07-06T05:38:16.602Z,8.73
2018-07-06T05:40:56.199Z,8.63
2018-07-06T05:43:35.912Z,8.73
2018-07-06T05:46:15.754Z,9.23
2018-07-06T05:48:55.573Z,8.43
2018-07-06T05:51:35.282Z,7.77
2018-07-06T05:54:15.216Z,8.10
2018-07-06T05:56:54.984Z,8.60
2018-07-06T05:59:34.676Z,8.53
2018-07-06T06:02:14.458Z,7.47
2018-07-06T06:04:54.475Z,7.37
2018-07-06T06:07:23.639Z,7.83
2018-07-06T06:09:52.302Z,6.03
2018-07-06T06:12:20.892Z,7.00
2018-07-06T06:14:50.224Z,7.37
2018-07-06T06:17:18.560Z,7.23
2018-07-06T06:19:46.752Z,6.40
2018-07-06T06:22:15.065Z,6.93
2018-07-06T06:24:43.304Z,6.80
2018-07-06T06:27:11.572Z,7.20
2018-07-06T06:29:39.934Z,7.10
2018-07-06T06:32:09.136Z,6.80
2018-07-06T06:34:37.384Z,8.00
2018-07-06T06:37:05.690Z,6.70
2018-07-06T06:39:34.112Z,6.43
2018-07-06T06:42:02.575Z,6.23
2018-07-06T06:44:30.969Z,6.87
2018-07-06T06:46:59.964Z,6.40
2018-07-06T06:49:29.497Z,5.53
2018-07-06T06:51:57.872Z,5.10
2018-07-06T06:54:26.339Z,5.50
2018-07-06T06:56:54.694Z,4.90
2018-07-06T06:59:23.411Z,4.70
2018-07-06T07:01:51.705Z,4.40
2018-07-06T07:04:20.304Z,4.80
2018-07-06T07:06:48.552Z,4.83
2018-07-06T07:09:16.856Z,4.30
2018-07-06T07:11:45.179Z,4.47
2018-07-06T07:14:13.441Z,3.40
2018-07-06T07:16:41.760Z,3.90
2018-07-06T07:19:10.033Z,3.83
2018-07-06T07:21:38.384Z,4.13
2018-07-06T07:24:06.661Z,3.90
2018-07-06T07:26:34.878Z,3.93
2018-07-06T07:29:03.155Z,3.63
2018-07-06T07:31:31.423Z,3.07
2018-07-06T07:34:00.021Z,3.13
2018-07-06T07:36:28.293Z,3.60
2018-07-06T07:38:56.845Z,3.00
2018-07-06T07:41:25.100Z,2.50
2018-07-06T07:43:53.450Z,2.50
2018-07-06T07:46:21.733Z,1.67
2018-07-06T07:48:50.008Z,2.20
2018-07-06T07:51:59.160Z,2.23
2018-07-06T07:54:32.581Z,3.27
2018-07-06T07:57:02.025Z,2.60
2018-07-06T07:59:32.219Z,2.40
2018-07-06T08:02:01.466Z,2.37
2018-07-06T08:04:30.474Z,1.97
2018-07-06T08:06:58.900Z,2.40
2018-07-06T08:09:27.515Z,2.23
2018-07-06T08:11:57.312Z,2.10
2018-07-06T08:14:25.940Z,2.60
2018-07-06T08:16:54.182Z,2.10
2018-07-06T08:19:22.742Z,2.00
2018-07-06T08:21:51.290Z,1.73
2018-07-06T08:24:20.265Z,2.10
2018-07-06T08:26:48.731Z,1.90
2018-07-06T08:29:17.017Z,2.37
2018-07-06T08:31:45.729Z,2.20
2018-07-06T08:34:25.285Z,2.30
2018-07-06T08:37:42.435Z,2.17
2018-07-06T08:40:10.902Z,2.50
2018-07-06T08:42:41.103Z,2.10
2018-07-06T08:45:09.721Z,2.40
2018-07-06T08:47:38.076Z,2.50
2018-07-06T08:50:07.069Z,2.10
2018-07-06T08:52:36.390Z,2.30
2018-07-06T08:55:04.943Z,2.60
2018-07-06T08:57:34.243Z,2.60
2018-07-06T09:00:02.493Z,2.50
2018-07-06T09:02:30.830Z,2.50
2018-07-06T09:05:00.088Z,2.43
2018-07-06T09:07:28.422Z,2.50
2018-07-06T09:09:57.491Z,2.60
2018-07-06T09:12:25.794Z,2.60
2018-07-06T09:14:54.455Z,2.70
2018-07-06T09:17:23.090Z,2.13
2018-07-06T09:19:52.484Z,2.50
2018-07-06T09:22:20.638Z,2.10
2018-07-06T09:24:50.420Z,2.50
2018-07-06T09:27:18.728Z,2.87
2018-07-06T09:29:47.011Z,2.87
2018-07-06T09:32:15.431Z,2.80
2018-07-06T09:34:43.778Z,2.40
2018-07-06T09:37:12.080Z,2.30
2018-07-06T09:39:41.958Z,2.20
2018-07-06T09:42:10.245Z,2.50
2018-07-06T09:44:38.567Z,2.30
2018-07-06T09:47:06.880Z,2.37
2018-07-06T09:49:35.199Z,2.10
2018-07-06T09:52:03.541Z,2.70
2018-07-06T09:54:32.119Z,2.57
2018-07-06T09:57:00.450Z,2.23
2018-07-06T09:59:28.760Z,4.00
2018-07-06T10:01:56.755Z,3.20
2018-07-06T10:04:25.039Z,2.50
2018-07-06T10:06:53.328Z,2.83
2018-07-06T10:09:21.605Z,2.60
2018-07-06T10:11:49.896Z,2.73
2018-07-06T10:14:18.625Z,2.50
2018-07-06T10:16:46.954Z,2.50
2018-07-06T10:19:15.293Z,3.30
2018-07-06T10:21:43.533Z,3.23
2018-07-06T10:24:11.871Z,3.20
2018-07-06T10:26:40.137Z,2.60
2018-07-06T10:30:19.843Z,2.90
2018-07-06T10:32:48.109Z,2.93
2018-07-06T10:35:16.422Z,2.97
2018-07-06T10:37:44.659Z,2.60
2018-07-06T10:40:13.007Z,2.80
2018-07-06T10:42:41.208Z,2.93
2018-07-06T10:45:09.455Z,3.50
2018-07-06T10:47:37.778Z,3.27
2018-07-06T10:50:06.081Z,2.80
2018-07-06T10:52:34.326Z,2.93
2018-07-06T10:55:02.597Z,2.90
2018-07-06T10:57:30.885Z,3.03
2018-07-06T10:59:59.176Z,2.70
2018-07-06T11:02:28.265Z,3.30
2018-07-06T11:04:56.581Z,3.03
2018-07-06T11:07:24.823Z,2.90
2018-07-06T11:09:53.234Z,2.70
2018-07-06T11:12:21.536Z,3.23
2018-07-06T11:14:49.761Z,2.70
2018-07-06T11:17:18.167Z,3.07
2018-07-06T11:19:46.448Z,3.43
2018-07-06T11:22:14.764Z,4.40
2018-07-06T11:24:43.072Z,3.70
2018-07-06T11:27:11.370Z,3.57
2018-07-06T11:29:39.789Z,3.50
2018-07-06T11:32:08.142Z,3.50
2018-07-06T11:34:36.456Z,3.73
2018-07-06T11:37:04.969Z,3.97
2018-07-06T11:39:33.343Z,4.00
2018-07-06T11:42:01.604Z,4.43
2018-07-06T11:44:29.894Z,4.50
2018-07-06T11:46:58.223Z,4.70
2018-07-06T11:49:26.556Z,3.97
2018-07-06T11:51:54.936Z,4.30
2018-07-06T11:54:23.783Z,3.33
2018-07-06T11:56:52.141Z,4.67
2018-07-06T11:59:20.404Z,4.33
2018-07-06T12:01:48.729Z,4.60
2018-07-06T12:04:17.154Z,5.93
2018-07-06T12:06:45.738Z,5.67
2018-07-06T12:09:14.265Z,5.53
2018-07-06T12:11:42.787Z,5.87
2018-07-06T12:14:11.140Z,6.20
2018-07-06T12:16:39.419Z,5.67
2018-07-06T12:19:07.740Z,6.13
2018-07-06T12:21:36.067Z,6.07
2018-07-06T12:24:04.127Z,7.33
2018-07-06T12:26:32.466Z,6.27
2018-07-06T12:29:00.745Z,6.30
2018-07-06T12:31:29.021Z,7.17
2018-07-06T12:33:57.270Z,5.60
2018-07-06T12:36:25.526Z,6.10
2018-07-06T12:38:54.170Z,5.97
2018-07-06T12:41:22.451Z,6.80
2018-07-06T12:43:50.734Z,6.57
2018-07-06T12:46:19.733Z,7.80
2018-07-06T12:48:48.277Z,7.73
2018-07-06T12:51:16.616Z,6.60
2018-07-06T12:53:44.810Z,5.20
2018-07-06T12:56:13.012Z,5.53
2018-07-06T12:58:41.416Z,5.83
2018-07-06T13:01:09.547Z,6.53
2018-07-06T13:03:37.861Z,5.53
2018-07-06T13:06:06.178Z,6.50
2018-07-06T13:08:34.435Z,6.60
2018-07-06T13:11:02.643Z,8.17
2018-07-06T13:13:30.939Z,8.00
2018-07-06T13:15:59.330Z,7.30
2018-07-06T13:18:27.603Z,9.27
2018-07-06T13:20:56.058Z,9.00
2018-07-06T13:23:25.410Z,9.90
2018-07-06T13:25:53.724Z,9.10
2018-07-06T13:28:22.066Z,8.00
2018-07-06T13:30:50.338Z,8.57
2018-07-06T13:33:18.716Z,9.17
2018-07-06T13:35:47.034Z,8.63
2018-07-06T13:38:15.333Z,7.50
2018-07-06T13:40:43.615Z,7.80
2018-07-06T13:43:11.897Z,6.67
2018-07-06T13:45:40.171Z,7.20
2018-07-06T13:48:08.417Z,6.70
2018-07-06T13:50:36.738Z,6.97
2018-07-06T13:53:05.167Z,7.30
2018-07-06T13:55:33.434Z,7.67
2018-07-06T13:58:01.749Z,7.60
2018-07-06T14:00:31.082Z,7.13
2018-07-06T14:02:59.348Z,8.17
2018-07-06T14:05:27.679Z,7.90
2018-07-06T14:07:55.998Z,7.57
2018-07-06T14:10:24.471Z,7.57
2018-07-06T14:12:52.801Z,7.87
2018-07-06T14:15:21.112Z,7.87
2018-07-06T14:17:49.446Z,6.70
2018-07-06T14:20:17.736Z,6.30
2018-07-06T14:22:46.002Z,5.20
2018-07-06T14:25:14.395Z,5.60
2018-07-06T14:27:42.647Z,6.03
2018-07-06T14:30:10.948Z,6.10
2018-07-06T14:32:39.209Z,6.43
2018-07-06T14:35:07.639Z,6.20
2018-07-06T14:37:37.286Z,6.90
2018-07-06T14:40:05.557Z,6.33
2018-07-06T14:42:33.918Z,6.30
2018-07-06T14:45:02.254Z,6.33
2018-07-06T14:47:30.488Z,6.83
2018-07-06T14:49:58.760Z,6.47
2018-07-06T14:52:27.566Z,6.03
2018-07-06T14:54:55.879Z,5.57
2018-07-06T14:57:24.164Z,5.93
2018-07-06T14:59:52.456Z,6.40
2018-07-06T15:02:20.782Z,5.90
2018-07-06T15:04:49.097Z,6.43
2018-07-06T15:07:17.380Z,6.67
2018-07-06T15:09:45.604Z,7.03
2018-07-06T15:12:13.859Z,6.50
2018-07-06T15:14:42.139Z,6.40
2018-07-06T15:17:10.504Z,6.80
2018-07-06T15:19:39.037Z,6.40
2018-07-06T15:22:07.430Z,6.00
2018-07-06T15:24:36.700Z,6.27
2018-07-06T15:27:05.137Z,6.97
2018-07-06T15:29:33.387Z,6.37
2018-07-06T15:32:01.801Z,6.20
2018-07-06T15:34:30.055Z,6.83
2018-07-06T15:36:58.334Z,8.80
2018-07-06T15:39:26.557Z,7.17
2018-07-06T15:41:54.836Z,7.90
2018-07-06T15:44:23.182Z,7.77
2018-07-06T15:46:51.597Z,8.60
2018-07-06T15:49:19.865Z,7.97
2018-07-06T15:51:48.157Z,8.80
2018-07-06T15:54:16.476Z,6.80
2018-07-06T15:56:44.774Z,7.60
2018-07-06T15:59:13.070Z,8.20
2018-07-06T16:01:41.377Z,7.80
2018-07-06T16:04:09.725Z,8.40
2018-07-06T16:06:38.518Z,8.90
2018-07-06T16:09:06.833Z,9.37
2018-07-06T16:11:35.106Z,8.83
2018-07-06T16:14:03.991Z,8.63
2018-07-06T16:16:32.024Z,8.37
2018-07-06T16:19:00.265Z,8.70
2018-07-06T16:21:28.598Z,8.87
2018-07-06T16:23:56.903Z,7.60
2018-07-06T16:26:25.186Z,6.10
2018-07-06T16:28:53.431Z,5.90
2018-07-06T16:31:21.779Z,7.07
2018-07-06T16:33:50.097Z,6.50
2018-07-06T16:36:18.446Z,6.80
2018-07-06T16:38:46.718Z,7.40
2018-07-06T16:41:15.018Z,7.23
2018-07-06T16:43:44.401Z,6.20
2018-07-06T16:46:12.784Z,5.87
2018-07-06T16:48:41.014Z,5.10
2018-07-06T16:51:09.304Z,5.67
2018-07-06T16:53:37.680Z,5.33
2018-07-06T16:56:05.998Z,5.00
2018-07-06T16:58:34.322Z,7.20
2018-07-06T17:01:02.643Z,6.10
2018-07-06T17:03:30.844Z,6.97
2018-07-06T17:05:59.157Z,6.83
2018-07-06T17:08:27.638Z,7.20
2018-07-06T17:10:55.959Z,6.80
2018-07-06T17:13:24.221Z,7.20
2018-07-06T17:15:52.945Z,7.90
2018-07-06T17:18:21.397Z,7.90
2018-07-06T17:20:49.821Z,6.90
2018-07-06T17:23:18.139Z,7.10
2018-07-06T17:25:46.412Z,7.63
2018-07-06T17:28:14.755Z,7.70
2018-07-06T17:30:43.132Z,8.83
2018-07-06T17:33:11.472Z,8.80
2018-07-06T17:35:40.222Z,8.57
2018-07-06T17:38:08.584Z,9.20
2018-07-06T17:40:36.841Z,9.83
2018-07-06T17:43:05.124Z,9.53
2018-07-06T17:45:33.411Z,9.23
2018-07-06T17:48:01.716Z,9.00
2018-07-06T17:50:30.097Z,8.93
2018-07-06T17:52:58.355Z,8.90
2018-07-06T17:55:26.654Z,9.30
2018-07-06T17:57:54.969Z,8.80
2018-07-06T18:00:23.295Z,9.40
2018-07-06T18:02:51.595Z,9.00
2018-07-06T18:05:19.882Z,8.63
2018-07-06T18:07:48.161Z,8.60
2018-07-06T18:10:16.450Z,8.43
2018-07-06T18:12:44.796Z,8.60
2018-07-06T18:15:14.560Z,8.90
2018-07-06T18:17:43.412Z,8.00
2018-07-06T18:20:11.699Z,7.80
2018-07-06T18:22:39.977Z,8.70
2018-07-06T18:25:08.348Z,7.50
2018-07-06T18:27:36.660Z,7.57
2018-07-06T18:30:04.971Z,7.60
2018-07-06T18:32:33.232Z,7.10
2018-07-06T18:35:01.532Z,8.00
2018-07-06T18:37:29.887Z,8.07
2018-07-06T18:39:58.135Z,7.97
2018-07-06T18:42:26.432Z,7.13
2018-07-06T18:44:54.765Z,7.33
2018-07-06T18:47:23.142Z,7.97
2018-07-06T18:49:51.564Z,7.67
2018-07-06T18:52:20.187Z,8.93
2018-07-06T18:54:48.638Z,8.90
2018-07-06T18:57:16.852Z,8.67
2018-07-06T18:59:45.167Z,8.70
2018-07-06T19:02:13.550Z,8.63
2018-07-06T19:04:41.827Z,9.40
2018-07-06T19:07:10.069Z,8.60
2018-07-06T19:09:38.406Z,8.33
2018-07-06T19:12:06.797Z,9.00
2018-07-06T19:14:35.114Z,8.53
2018-07-06T19:17:03.390Z,8.20
2018-07-06T19:19:31.694Z,9.20
2018-07-06T19:21:59.943Z,9.10
2018-07-06T19:24:28.171Z,8.73
2018-07-06T19:26:56.508Z,9.10
2018-07-06T19:29:26.520Z,8.27
2018-07-06T19:31:55.183Z,9.20
2018-07-06T19:34:23.544Z,8.80
2018-07-06T19:36:51.770Z,8.63
2018-07-06T19:39:20.128Z,10.00
2018-07-06T19:41:48.541Z,9.30
2018-07-06T19:44:16.885Z,8.50
2018-07-06T19:46:45.451Z,8.90
2018-07-06T19:49:13.695Z,8.73
2018-07-06T19:51:42.118Z,8.73
2018-07-06T19:54:10.319Z,9.80
2018-07-06T19:56:38.655Z,9.23
2018-07-06T19:59:06.890Z,8.90
2018-07-06T20:01:35.125Z,9.17
2018-07-06T20:04:03.653Z,10.23
2018-07-06T20:06:33.178Z,10.87
2018-07-06T20:09:01.496Z,9.40
2018-07-06T20:11:29.807Z,10.20
2018-07-06T20:13:58.108Z,9.73
2018-07-06T20:16:26.677Z,8.83
2018-07-06T20:18:54.931Z,9.03
2018-07-06T20:21:23.283Z,8.80
2018-07-06T20:23:51.592Z,10.20
2018-07-06T20:26:19.924Z,10.10
2018-07-06T20:28:48.541Z,10.07
2018-07-06T20:31:16.842Z,8.80
2018-07-06T20:33:45.121Z,9.63
2018-07-06T20:36:13.558Z,10.43
2018-07-06T20:38:41.812Z,10.90
2018-07-06T20:41:10.102Z,9.87
2018-07-06T20:43:38.512Z,9.50
2018-07-06T20:46:06.829Z,10.03
2018-07-06T20:48:35.118Z,10.03
2018-07-06T20:51:03.474Z,9.40
2018-07-06T20:53:31.840Z,10.60
2018-07-06T20:56:00.121Z,10.03
2018-07-06T20:58:28.359Z,10.67
2018-07-06T21:00:56.635Z,10.00
2018-07-06T21:03:24.904Z,10.70
2018-07-06T21:05:53.209Z,9.07
2018-07-06T21:08:21.475Z,10.50
2018-07-06T21:10:49.437Z,11.60
2018-07-06T21:13:17.674Z,10.47
2018-07-06T21:15:45.949Z,10.17
2018-07-06T21:18:14.292Z,9.33
2018-07-06T21:20:43.272Z,12.20
2018-07-06T21:23:11.574Z,10.33
2018-07-06T21:25:40.491Z,10.40
2018-07-06T21:28:08.743Z,10.90
2018-07-06T21:30:37.104Z,11.10
2018-07-06T21:33:05.568Z,10.80
2018-07-06T21:35:33.833Z,10.13
2018-07-06T21:38:02.091Z,10.03
2018-07-06T21:40:30.374Z,9.90
2018-07-06T21:42:58.925Z,11.00
2018-07-06T21:45:27.228Z,11.03
2018-07-06T21:47:55.473Z,11.03
2018-07-06T21:50:23.777Z,10.80
2018-07-06T21:52:52.369Z,11.03
2018-07-06T21:55:20.438Z,9.97
2018-07-06T21:57:48.733Z,10.63
2018-07-06T22:00:18.728Z,10.93
2018-07-06T22:02:47.072Z,10.27
2018-07-06T22:05:15.313Z,9.50
2018-07-06T22:07:43.618Z,10.53
2018-07-06T22:10:11.921Z,10.53
2018-07-06T22:12:40.205Z,10.27
2018-07-06T22:15:08.526Z,11.10
2018-07-06T22:17:36.804Z,10.50
2018-07-06T22:20:05.705Z,11.20
2018-07-06T22:22:33.965Z,9.40
2018-07-06T22:25:02.140Z,10.60
2018-07-06T22:27:30.409Z,10.10
2018-07-06T22:29:58.825Z,11.00
2018-07-06T22:32:27.187Z,15.57
2018-07-06T22:34:55.363Z,11.53
2018-07-06T22:37:23.577Z,13.70
2018-07-06T22:39:51.779Z,10.47
2018-07-06T22:42:20.071Z,11.93
2018-07-06T22:44:48.347Z,11.57
2018-07-06T22:47:16.607Z,10.73
2018-07-06T22:49:44.838Z,11.43
2018-07-06T22:52:13.046Z,12.47
2018-07-06T22:54:41.307Z,12.90
2018-07-06T22:57:09.625Z,10.50
2018-07-06T22:59:37.871Z,10.27
2018-07-06T23:02:06.475Z,10.43
2018-07-06T23:04:34.715Z,10.23
2018-07-06T23:07:03.036Z,9.63
2018-07-06T23:09:31.291Z,10.53
2018-07-06T23:11:59.504Z,10.00
2018-07-06T23:14:27.539Z,10.20
2018-07-06T23:16:55.821Z,9.80
2018-07-06T23:19:24.012Z,10.10
2018-07-06T23:21:52.296Z,9.90
2018-07-06T23:24:20.533Z,9.23
2018-07-06T23:26:48.793Z,10.23
2018-07-06T23:29:17.072Z,10.03
2018-07-06T23:31:45.251Z,9.37
2018-07-06T23:34:13.298Z,9.47
2018-07-06T23:36:41.565Z,9.43
2018-07-06T23:39:10.019Z,9.30
2018-07-06T23:41:38.251Z,9.80
2018-07-06T23:44:06.837Z,9.00
2018-07-06T23:46:35.151Z,10.20
2018-07-06T23:49:03.442Z,9.63
2018-07-06T23:51:31.678Z,10.10
2018-07-06T23:53:59.915Z,9.60
2018-07-06T23:56:28.129Z,8.67
2018-07-06T23:58:56.420Z,9.60
